sensor_id;sensor_type;location;lat;lon;timestamp;P1;durP1;ratioP1;P2;durP2;ratioP2
22378;SDS011;11357;49.990;7.370;2023-05-19T00:00:16;4.30;;;2.00;;
22378;SDS011;11357;49.990;7.370;2023-05-19T00:02:43;6.53;;;2.30;;
22378;SDS011;11357;49.990;7.370;2023-05-19T00:05:10;4.07;;;1.90;;
22378;SDS011;11357;49.990;7.370;2023-05-19T00:07:42;14.00;;;2.40;;
22378;SDS011;11357;49.990;7.370;2023-05-19T00:10:09;6.33;;;2.40;;
22378;SDS011;11357;49.990;7.370;2023-05-19T00:12:36;5.40;;;2.20;;
22378;SDS011;11357;49.990;7.370;2023-05-19T00:15:02;9.23;;;2.40;;
22378;SDS011;11357;49.990;7.370;2023-05-19T00:17:29;7.53;;;2.00;;
22378;SDS011;11357;49.990;7.370;2023-05-19T00:19:55;6.90;;;2.13;;
22378;SDS011;11357;49.990;7.370;2023-05-19T00:22:20;5.13;;;2.20;;
22378;SDS011;11357;49.990;7.370;2023-05-19T00:24:46;11.50;;;2.30;;
22378;SDS011;11357;49.990;7.370;2023-05-19T00:27:13;7.27;;;2.20;;
22378;SDS011;11357;49.990;7.370;2023-05-19T00:29:38;8.63;;;2.47;;
22378;SDS011;11357;49.990;7.370;2023-05-19T00:32:04;7.50;;;2.23;;
22378;SDS011;11357;49.990;7.370;2023-05-19T00:34:30;8.47;;;2.30;;
22378;SDS011;11357;49.990;7.370;2023-05-19T00:36:55;7.30;;;2.40;;
22378;SDS011;11357;49.990;7.370;2023-05-19T00:39:21;6.30;;;2.20;;
22378;SDS011;11357;49.990;7.370;2023-05-19T00:41:47;6.73;;;2.00;;
22378;SDS011;11357;49.990;7.370;2023-05-19T00:44:13;3.90;;;1.83;;
22378;SDS011;11357;49.990;7.370;2023-05-19T00:46:38;4.60;;;2.23;;
22378;SDS011;11357;49.990;7.370;2023-05-19T00:49:05;8.70;;;2.20;;
22378;SDS011;11357;49.990;7.370;2023-05-19T00:51:31;6.67;;;2.07;;
22378;SDS011;11357;49.990;7.370;2023-05-19T00:53:56;7.20;;;2.50;;
22378;SDS011;11357;49.990;7.370;2023-05-19T00:56:22;6.17;;;2.37;;
22378;SDS011;11357;49.990;7.370;2023-05-19T00:58:49;4.37;;;1.93;;
22378;SDS011;11357;49.990;7.370;2023-05-19T01:01:15;9.97;;;2.13;;
22378;SDS011;11357;49.990;7.370;2023-05-19T01:03:45;9.07;;;2.13;;
22378;SDS011;11357;49.990;7.370;2023-05-19T01:06:11;3.50;;;1.90;;
22378;SDS011;11357;49.990;7.370;2023-05-19T01:08:39;4.80;;;2.60;;
22378;SDS011;11357;49.990;7.370;2023-05-19T01:11:05;5.00;;;2.03;;
22378;SDS011;11357;49.990;7.370;2023-05-19T01:13:31;3.00;;;2.10;;
22378;SDS011;11357;49.990;7.370;2023-05-19T01:15:59;6.43;;;2.23;;
22378;SDS011;11357;49.990;7.370;2023-05-19T01:32:49;4.70;;;2.23;;
22378;SDS011;11357;49.990;7.370;2023-05-19T01:35:22;5.70;;;2.40;;
22378;SDS011;11357;49.990;7.370;2023-05-19T01:37:54;8.27;;;2.73;;
22378;SDS011;11357;49.990;7.370;2023-05-19T01:40:21;9.60;;;3.00;;
22378;SDS011;11357;49.990;7.370;2023-05-19T01:42:49;8.97;;;2.80;;
22378;SDS011;11357;49.990;7.370;2023-05-19T01:45:17;9.97;;;2.40;;
22378;SDS011;11357;49.990;7.370;2023-05-19T01:47:45;9.07;;;2.80;;
22378;SDS011;11357;49.990;7.370;2023-05-19T01:50:13;6.50;;;2.33;;
22378;SDS011;11357;49.990;7.370;2023-05-19T01:52:39;5.33;;;2.30;;
22378;SDS011;11357;49.990;7.370;2023-05-19T01:55:05;8.30;;;2.37;;
22378;SDS011;11357;49.990;7.370;2023-05-19T02:00:17;6.60;;;2.23;;
22378;SDS011;11357;49.990;7.370;2023-05-19T02:10:51;4.20;;;2.13;;
22378;SDS011;11357;49.990;7.370;2023-05-19T02:13:22;7.70;;;2.30;;
22378;SDS011;11357;49.990;7.370;2023-05-19T02:15:51;8.67;;;2.50;;
22378;SDS011;11357;49.990;7.370;2023-05-19T02:18:20;11.80;;;2.77;;
22378;SDS011;11357;49.990;7.370;2023-05-19T02:20:46;4.50;;;2.20;;
22378;SDS011;11357;49.990;7.370;2023-05-19T02:23:12;6.33;;;2.60;;
22378;SDS011;11357;49.990;7.370;2023-05-19T02:25:38;6.73;;;2.77;;
22378;SDS011;11357;49.990;7.370;2023-05-19T02:28:04;7.00;;;2.30;;
22378;SDS011;11357;49.990;7.370;2023-05-19T02:30:30;11.50;;;2.50;;
22378;SDS011;11357;49.990;7.370;2023-05-19T02:32:56;6.37;;;2.40;;
22378;SDS011;11357;49.990;7.370;2023-05-19T02:35:22;12.50;;;2.70;;
22378;SDS011;11357;49.990;7.370;2023-05-19T02:37:48;5.40;;;2.73;;
22378;SDS011;11357;49.990;7.370;2023-05-19T02:40:13;6.53;;;2.37;;
22378;SDS011;11357;49.990;7.370;2023-05-19T02:42:39;8.97;;;2.60;;
22378;SDS011;11357;49.990;7.370;2023-05-19T02:45:05;10.37;;;2.90;;
22378;SDS011;11357;49.990;7.370;2023-05-19T02:47:31;8.23;;;2.87;;
22378;SDS011;11357;49.990;7.370;2023-05-19T02:49:57;7.83;;;2.60;;
22378;SDS011;11357;49.990;7.370;2023-05-19T02:52:23;6.57;;;2.63;;
22378;SDS011;11357;49.990;7.370;2023-05-19T02:54:48;4.40;;;2.43;;
22378;SDS011;11357;49.990;7.370;2023-05-19T02:57:15;5.67;;;2.50;;
22378;SDS011;11357;49.990;7.370;2023-05-19T02:59:40;9.07;;;2.83;;
22378;SDS011;11357;49.990;7.370;2023-05-19T03:02:07;5.77;;;2.17;;
22378;SDS011;11357;49.990;7.370;2023-05-19T03:04:32;5.13;;;2.53;;
22378;SDS011;11357;49.990;7.370;2023-05-19T03:07:05;8.47;;;2.53;;
22378;SDS011;11357;49.990;7.370;2023-05-19T03:09:31;5.17;;;2.20;;
22378;SDS011;11357;49.990;7.370;2023-05-19T03:11:57;5.87;;;2.50;;
22378;SDS011;11357;49.990;7.370;2023-05-19T03:14:27;6.97;;;2.53;;
22378;SDS011;11357;49.990;7.370;2023-05-19T03:16:53;4.63;;;2.33;;
22378;SDS011;11357;49.990;7.370;2023-05-19T03:19:20;6.03;;;2.43;;
22378;SDS011;11357;49.990;7.370;2023-05-19T03:21:46;6.60;;;2.60;;
22378;SDS011;11357;49.990;7.370;2023-05-19T03:24:12;10.20;;;2.70;;
22378;SDS011;11357;49.990;7.370;2023-05-19T03:26:37;6.67;;;2.87;;
22378;SDS011;11357;49.990;7.370;2023-05-19T03:29:03;7.30;;;2.40;;
22378;SDS011;11357;49.990;7.370;2023-05-19T03:31:29;4.30;;;2.13;;
22378;SDS011;11357;49.990;7.370;2023-05-19T03:33:55;9.13;;;2.63;;
22378;SDS011;11357;49.990;7.370;2023-05-19T03:36:23;7.70;;;2.50;;
22378;SDS011;11357;49.990;7.370;2023-05-19T03:38:50;6.23;;;2.83;;
22378;SDS011;11357;49.990;7.370;2023-05-19T03:41:15;5.63;;;2.67;;
22378;SDS011;11357;49.990;7.370;2023-05-19T03:43:41;5.53;;;2.40;;
22378;SDS011;11357;49.990;7.370;2023-05-19T03:46:07;8.80;;;2.77;;
22378;SDS011;11357;49.990;7.370;2023-05-19T03:48:32;5.50;;;2.70;;
22378;SDS011;11357;49.990;7.370;2023-05-19T03:50:58;6.37;;;2.60;;
22378;SDS011;11357;49.990;7.370;2023-05-19T03:53:24;6.53;;;2.93;;
22378;SDS011;11357;49.990;7.370;2023-05-19T03:55:50;5.87;;;2.70;;
22378;SDS011;11357;49.990;7.370;2023-05-19T03:58:16;3.97;;;2.27;;
22378;SDS011;11357;49.990;7.370;2023-05-19T04:00:41;5.40;;;2.87;;
22378;SDS011;11357;49.990;7.370;2023-05-19T04:03:07;7.53;;;2.60;;
22378;SDS011;11357;49.990;7.370;2023-05-19T04:05:33;9.43;;;2.53;;
22378;SDS011;11357;49.990;7.370;2023-05-19T04:07:59;9.20;;;2.87;;
22378;SDS011;11357;49.990;7.370;2023-05-19T04:10:24;8.50;;;3.30;;
22378;SDS011;11357;49.990;7.370;2023-05-19T04:12:50;11.83;;;3.00;;
22378;SDS011;11357;49.990;7.370;2023-05-19T04:15:16;7.67;;;2.80;;
22378;SDS011;11357;49.990;7.370;2023-05-19T04:17:42;7.87;;;2.73;;
22378;SDS011;11357;49.990;7.370;2023-05-19T04:20:07;8.70;;;2.90;;
22378;SDS011;11357;49.990;7.370;2023-05-19T04:22:33;8.13;;;2.40;;
22378;SDS011;11357;49.990;7.370;2023-05-19T04:24:59;4.03;;;2.80;;
22378;SDS011;11357;49.990;7.370;2023-05-19T04:27:25;5.63;;;2.40;;
22378;SDS011;11357;49.990;7.370;2023-05-19T04:29:53;8.90;;;3.20;;
22378;SDS011;11357;49.990;7.370;2023-05-19T04:32:18;6.33;;;2.70;;
22378;SDS011;11357;49.990;7.370;2023-05-19T04:34:44;6.67;;;2.43;;
22378;SDS011;11357;49.990;7.370;2023-05-19T04:37:13;4.27;;;2.10;;
22378;SDS011;11357;49.990;7.370;2023-05-19T04:39:40;7.13;;;3.13;;
22378;SDS011;11357;49.990;7.370;2023-05-19T04:42:08;4.00;;;2.50;;
22378;SDS011;11357;49.990;7.370;2023-05-19T04:44:35;5.87;;;2.27;;
22378;SDS011;11357;49.990;7.370;2023-05-19T04:47:07;7.13;;;2.60;;
22378;SDS011;11357;49.990;7.370;2023-05-19T04:49:36;6.93;;;2.70;;
22378;SDS011;11357;49.990;7.370;2023-05-19T04:52:07;4.70;;;2.27;;
22378;SDS011;11357;49.990;7.370;2023-05-19T04:54:35;5.53;;;2.20;;
22378;SDS011;11357;49.990;7.370;2023-05-19T04:57:01;6.63;;;2.40;;
22378;SDS011;11357;49.990;7.370;2023-05-19T04:59:27;5.37;;;2.37;;
22378;SDS011;11357;49.990;7.370;2023-05-19T05:01:53;5.47;;;2.57;;
22378;SDS011;11357;49.990;7.370;2023-05-19T05:04:20;6.87;;;2.40;;
22378;SDS011;11357;49.990;7.370;2023-05-19T05:06:46;11.73;;;2.57;;
22378;SDS011;11357;49.990;7.370;2023-05-19T05:09:16;10.47;;;2.37;;
22378;SDS011;11357;49.990;7.370;2023-05-19T05:11:43;8.67;;;2.40;;
22378;SDS011;11357;49.990;7.370;2023-05-19T05:14:09;6.80;;;2.40;;
22378;SDS011;11357;49.990;7.370;2023-05-19T05:16:36;6.90;;;2.50;;
22378;SDS011;11357;49.990;7.370;2023-05-19T05:19:02;9.50;;;2.47;;
22378;SDS011;11357;49.990;7.370;2023-05-19T05:21:28;5.93;;;2.33;;
22378;SDS011;11357;49.990;7.370;2023-05-19T05:23:55;9.57;;;2.47;;
22378;SDS011;11357;49.990;7.370;2023-05-19T05:26:21;5.30;;;2.17;;
22378;SDS011;11357;49.990;7.370;2023-05-19T05:28:52;5.00;;;2.33;;
22378;SDS011;11357;49.990;7.370;2023-05-19T05:31:18;5.67;;;1.77;;
22378;SDS011;11357;49.990;7.370;2023-05-19T05:33:43;4.17;;;2.27;;
22378;SDS011;11357;49.990;7.370;2023-05-19T05:36:09;7.03;;;1.90;;
22378;SDS011;11357;49.990;7.370;2023-05-19T05:38:35;4.37;;;2.00;;
22378;SDS011;11357;49.990;7.370;2023-05-19T05:41:01;6.57;;;2.00;;
22378;SDS011;11357;49.990;7.370;2023-05-19T05:43:27;8.80;;;2.30;;
22378;SDS011;11357;49.990;7.370;2023-05-19T05:45:54;9.13;;;2.17;;
22378;SDS011;11357;49.990;7.370;2023-05-19T05:48:20;6.60;;;2.10;;
22378;SDS011;11357;49.990;7.370;2023-05-19T05:50:46;5.63;;;1.93;;
22378;SDS011;11357;49.990;7.370;2023-05-19T05:53:16;8.30;;;2.03;;
22378;SDS011;11357;49.990;7.370;2023-05-19T05:55:44;8.00;;;2.13;;
22378;SDS011;11357;49.990;7.370;2023-05-19T05:58:10;13.83;;;2.20;;
22378;SDS011;11357;49.990;7.370;2023-05-19T06:00:38;6.73;;;1.93;;
22378;SDS011;11357;49.990;7.370;2023-05-19T06:03:07;5.30;;;2.03;;
22378;SDS011;11357;49.990;7.370;2023-05-19T06:05:33;9.57;;;2.30;;
22378;SDS011;11357;49.990;7.370;2023-05-19T06:08:00;6.57;;;2.37;;
22378;SDS011;11357;49.990;7.370;2023-05-19T06:10:26;6.97;;;2.10;;
22378;SDS011;11357;49.990;7.370;2023-05-19T06:12:53;3.80;;;1.80;;
22378;SDS011;11357;49.990;7.370;2023-05-19T06:15:20;5.23;;;1.67;;
22378;SDS011;11357;49.990;7.370;2023-05-19T06:17:46;5.77;;;2.03;;
22378;SDS011;11357;49.990;7.370;2023-05-19T06:20:12;3.60;;;1.60;;
22378;SDS011;11357;49.990;7.370;2023-05-19T06:25:10;7.47;;;2.00;;
22378;SDS011;11357;49.990;7.370;2023-05-19T06:27:36;8.63;;;2.73;;
22378;SDS011;11357;49.990;7.370;2023-05-19T06:30:10;8.67;;;1.93;;
22378;SDS011;11357;49.990;7.370;2023-05-19T06:32:36;4.23;;;1.83;;
22378;SDS011;11357;49.990;7.370;2023-05-19T06:35:02;5.73;;;1.93;;
22378;SDS011;11357;49.990;7.370;2023-05-19T06:37:28;4.77;;;1.70;;
22378;SDS011;11357;49.990;7.370;2023-05-19T06:39:53;6.40;;;2.50;;
22378;SDS011;11357;49.990;7.370;2023-05-19T06:42:19;4.57;;;1.83;;
22378;SDS011;11357;49.990;7.370;2023-05-19T06:44:49;3.93;;;1.80;;
22378;SDS011;11357;49.990;7.370;2023-05-19T06:47:16;6.60;;;2.00;;
22378;SDS011;11357;49.990;7.370;2023-05-19T06:49:46;7.60;;;2.23;;
22378;SDS011;11357;49.990;7.370;2023-05-19T06:52:15;4.53;;;1.90;;
22378;SDS011;11357;49.990;7.370;2023-05-19T06:54:41;8.03;;;2.17;;
22378;SDS011;11357;49.990;7.370;2023-05-19T06:57:07;8.63;;;1.90;;
22378;SDS011;11357;49.990;7.370;2023-05-19T06:59:32;5.33;;;1.93;;
22378;SDS011;11357;49.990;7.370;2023-05-19T07:01:58;7.77;;;1.80;;
22378;SDS011;11357;49.990;7.370;2023-05-19T07:04:26;24.17;;;2.33;;
22378;SDS011;11357;49.990;7.370;2023-05-19T07:06:51;4.17;;;1.80;;
22378;SDS011;11357;49.990;7.370;2023-05-19T07:09:28;4.90;;;1.93;;
22378;SDS011;11357;49.990;7.370;2023-05-19T07:11:53;4.00;;;1.60;;
22378;SDS011;11357;49.990;7.370;2023-05-19T07:14:20;9.90;;;2.30;;
22378;SDS011;11357;49.990;7.370;2023-05-19T07:16:46;5.83;;;2.00;;
22378;SDS011;11357;49.990;7.370;2023-05-19T07:19:12;7.17;;;1.90;;
22378;SDS011;11357;49.990;7.370;2023-05-19T07:21:37;9.67;;;2.10;;
22378;SDS011;11357;49.990;7.370;2023-05-19T07:24:03;7.20;;;1.93;;
22378;SDS011;11357;49.990;7.370;2023-05-19T07:29:03;5.97;;;1.80;;
22378;SDS011;11357;49.990;7.370;2023-05-19T07:31:29;10.60;;;2.77;;
22378;SDS011;11357;49.990;7.370;2023-05-19T07:33:55;10.90;;;2.30;;
22378;SDS011;11357;49.990;7.370;2023-05-19T07:36:21;8.00;;;2.23;;
22378;SDS011;11357;49.990;7.370;2023-05-19T07:38:47;8.73;;;2.77;;
22378;SDS011;11357;49.990;7.370;2023-05-19T07:41:13;8.27;;;2.03;;
22378;SDS011;11357;49.990;7.370;2023-05-19T07:43:38;5.17;;;2.20;;
22378;SDS011;11357;49.990;7.370;2023-05-19T07:46:04;5.33;;;1.87;;
22378;SDS011;11357;49.990;7.370;2023-05-19T07:48:30;6.67;;;2.20;;
22378;SDS011;11357;49.990;7.370;2023-05-19T07:50:56;8.03;;;2.00;;
22378;SDS011;11357;49.990;7.370;2023-05-19T07:53:22;8.88;;;2.10;;
22378;SDS011;11357;49.990;7.370;2023-05-19T07:55:48;8.70;;;2.07;;
22378;SDS011;11357;49.990;7.370;2023-05-19T07:58:14;4.83;;;2.00;;
22378;SDS011;11357;49.990;7.370;2023-05-19T08:00:40;4.53;;;1.93;;
22378;SDS011;11357;49.990;7.370;2023-05-19T08:03:10;7.67;;;2.13;;
22378;SDS011;11357;49.990;7.370;2023-05-19T08:05:36;4.20;;;1.87;;
22378;SDS011;11357;49.990;7.370;2023-05-19T08:08:02;6.73;;;2.03;;
22378;SDS011;11357;49.990;7.370;2023-05-19T08:10:28;7.53;;;2.00;;
22378;SDS011;11357;49.990;7.370;2023-05-19T08:12:53;9.10;;;2.40;;
22378;SDS011;11357;49.990;7.370;2023-05-19T08:15:20;6.80;;;2.10;;
22378;SDS011;11357;49.990;7.370;2023-05-19T08:17:46;8.23;;;2.87;;
22378;SDS011;11357;49.990;7.370;2023-05-19T08:20:15;7.63;;;2.03;;
22378;SDS011;11357;49.990;7.370;2023-05-19T08:22:40;8.38;;;2.08;;
22378;SDS011;11357;49.990;7.370;2023-05-19T08:25:06;7.45;;;1.85;;
22378;SDS011;11357;49.990;7.370;2023-05-19T08:27:36;6.88;;;2.15;;
22378;SDS011;11357;49.990;7.370;2023-05-19T08:30:02;4.60;;;1.70;;
22378;SDS011;11357;49.990;7.370;2023-05-19T08:32:28;4.22;;;1.98;;
22378;SDS011;11357;49.990;7.370;2023-05-19T08:40:01;8.10;;;2.33;;
22378;SDS011;11357;49.990;7.370;2023-05-19T08:42:29;10.63;;;3.45;;
22378;SDS011;11357;49.990;7.370;2023-05-19T08:44:56;15.55;;;5.75;;
22378;SDS011;11357;49.990;7.370;2023-05-19T08:47:23;11.98;;;4.45;;
22378;SDS011;11357;49.990;7.370;2023-05-19T08:49:51;7.80;;;2.65;;
22378;SDS011;11357;49.990;7.370;2023-05-19T08:55:03;5.10;;;2.20;;
22378;SDS011;11357;49.990;7.370;2023-05-19T08:57:33;8.25;;;2.28;;
22378;SDS011;11357;49.990;7.370;2023-05-19T09:00:01;7.85;;;2.25;;
22378;SDS011;11357;49.990;7.370;2023-05-19T09:02:31;10.10;;;2.33;;
22378;SDS011;11357;49.990;7.370;2023-05-19T09:04:57;8.60;;;2.10;;
22378;SDS011;11357;49.990;7.370;2023-05-19T09:07:23;7.97;;;2.50;;
22378;SDS011;11357;49.990;7.370;2023-05-19T09:09:50;4.90;;;1.85;;
22378;SDS011;11357;49.990;7.370;2023-05-19T09:12:16;10.40;;;2.40;;
22378;SDS011;11357;49.990;7.370;2023-05-19T09:14:44;4.63;;;2.13;;
22378;SDS011;11357;49.990;7.370;2023-05-19T09:17:10;5.63;;;2.08;;
22378;SDS011;11357;49.990;7.370;2023-05-19T09:19:41;4.10;;;1.70;;
22378;SDS011;11357;49.990;7.370;2023-05-19T09:22:08;4.50;;;1.90;;
22378;SDS011;11357;49.990;7.370;2023-05-19T09:24:33;5.70;;;1.88;;
22378;SDS011;11357;49.990;7.370;2023-05-19T09:26:59;5.10;;;2.05;;
22378;SDS011;11357;49.990;7.370;2023-05-19T09:29:26;7.28;;;1.90;;
22378;SDS011;11357;49.990;7.370;2023-05-19T09:34:28;6.70;;;1.95;;
22378;SDS011;11357;49.990;7.370;2023-05-19T09:36:53;6.93;;;1.90;;
22378;SDS011;11357;49.990;7.370;2023-05-19T09:39:20;5.93;;;1.98;;
22378;SDS011;11357;49.990;7.370;2023-05-19T09:41:50;6.63;;;2.20;;
22378;SDS011;11357;49.990;7.370;2023-05-19T09:44:20;4.18;;;1.55;;
22378;SDS011;11357;49.990;7.370;2023-05-19T09:46:51;4.93;;;1.88;;
22378;SDS011;11357;49.990;7.370;2023-05-19T09:49:24;6.38;;;2.80;;
22378;SDS011;11357;49.990;7.370;2023-05-19T09:54:20;7.80;;;2.55;;
22378;SDS011;11357;49.990;7.370;2023-05-19T09:56:55;4.82;;;2.20;;
22378;SDS011;11357;49.990;7.370;2023-05-19T09:59:28;4.40;;;1.45;;
22378;SDS011;11357;49.990;7.370;2023-05-19T10:01:56;5.00;;;2.03;;
22378;SDS011;11357;49.990;7.370;2023-05-19T10:04:23;6.38;;;2.30;;
22378;SDS011;11357;49.990;7.370;2023-05-19T10:06:53;6.20;;;1.83;;
22378;SDS011;11357;49.990;7.370;2023-05-19T10:09:26;6.90;;;2.40;;
22378;SDS011;11357;49.990;7.370;2023-05-19T10:11:53;7.32;;;2.10;;
22378;SDS011;11357;49.990;7.370;2023-05-19T10:14:24;7.85;;;2.17;;
22378;SDS011;11357;49.990;7.370;2023-05-19T10:16:51;5.57;;;2.17;;
22378;SDS011;11357;49.990;7.370;2023-05-19T10:19:22;3.03;;;1.67;;
22378;SDS011;11357;49.990;7.370;2023-05-19T10:21:49;5.97;;;2.00;;
22378;SDS011;11357;49.990;7.370;2023-05-19T10:24:15;4.80;;;2.10;;
22378;SDS011;11357;49.990;7.370;2023-05-19T10:27:04;7.63;;;2.25;;
22378;SDS011;11357;49.990;7.370;2023-05-19T10:29:32;8.02;;;2.13;;
22378;SDS011;11357;49.990;7.370;2023-05-19T10:32:13;4.63;;;1.77;;
22378;SDS011;11357;49.990;7.370;2023-05-19T10:40:20;4.85;;;1.90;;
22378;SDS011;11357;49.990;7.370;2023-05-19T10:45:46;9.20;;;2.20;;
22378;SDS011;11357;49.990;7.370;2023-05-19T10:50:44;10.18;;;2.30;;
22378;SDS011;11357;49.990;7.370;2023-05-19T10:53:14;7.68;;;2.20;;
22378;SDS011;11357;49.990;7.370;2023-05-19T10:58:13;6.13;;;2.35;;
22378;SDS011;11357;49.990;7.370;2023-05-19T11:00:39;4.95;;;1.90;;
22378;SDS011;11357;49.990;7.370;2023-05-19T11:03:11;4.82;;;1.88;;
22378;SDS011;11357;49.990;7.370;2023-05-19T11:05:37;6.28;;;2.10;;
22378;SDS011;11357;49.990;7.370;2023-05-19T11:08:04;8.73;;;2.03;;
22378;SDS011;11357;49.990;7.370;2023-05-19T11:10:32;6.32;;;2.03;;
22378;SDS011;11357;49.990;7.370;2023-05-19T11:12:58;5.13;;;2.10;;
22378;SDS011;11357;49.990;7.370;2023-05-19T11:15:25;7.25;;;2.35;;
22378;SDS011;11357;49.990;7.370;2023-05-19T11:17:54;8.02;;;1.98;;
22378;SDS011;11357;49.990;7.370;2023-05-19T11:20:21;5.93;;;2.58;;
22378;SDS011;11357;49.990;7.370;2023-05-19T11:25:48;6.63;;;2.00;;
22378;SDS011;11357;49.990;7.370;2023-05-19T11:28:16;8.50;;;2.40;;
22378;SDS011;11357;49.990;7.370;2023-05-19T11:30:44;8.88;;;2.50;;
22378;SDS011;11357;49.990;7.370;2023-05-19T11:33:13;11.68;;;2.38;;
22378;SDS011;11357;49.990;7.370;2023-05-19T11:35:39;9.13;;;2.53;;
22378;SDS011;11357;49.990;7.370;2023-05-19T11:38:05;4.97;;;1.90;;
22378;SDS011;11357;49.990;7.370;2023-05-19T11:40:31;4.88;;;2.05;;
22378;SDS011;11357;49.990;7.370;2023-05-19T11:42:57;6.45;;;1.70;;
22378;SDS011;11357;49.990;7.370;2023-05-19T11:45:25;3.60;;;1.73;;
22378;SDS011;11357;49.990;7.370;2023-05-19T11:47:56;5.20;;;1.63;;
22378;SDS011;11357;49.990;7.370;2023-05-19T11:50:23;5.30;;;1.60;;
22378;SDS011;11357;49.990;7.370;2023-05-19T11:52:50;4.93;;;1.92;;
22378;SDS011;11357;49.990;7.370;2023-05-19T11:55:16;7.68;;;1.85;;
22378;SDS011;11357;49.990;7.370;2023-05-19T11:57:55;6.60;;;1.95;;
22378;SDS011;11357;49.990;7.370;2023-05-19T12:00:22;9.50;;;1.92;;
22378;SDS011;11357;49.990;7.370;2023-05-19T12:02:49;6.07;;;1.80;;
22378;SDS011;11357;49.990;7.370;2023-05-19T12:05:22;5.00;;;2.00;;
22378;SDS011;11357;49.990;7.370;2023-05-19T12:07:48;6.40;;;2.00;;
22378;SDS011;11357;49.990;7.370;2023-05-19T12:10:25;5.85;;;1.98;;
22378;SDS011;11357;49.990;7.370;2023-05-19T12:12:53;3.42;;;1.65;;
22378;SDS011;11357;49.990;7.370;2023-05-19T12:15:20;5.38;;;1.75;;
22378;SDS011;11357;49.990;7.370;2023-05-19T12:17:49;3.88;;;1.60;;
22378;SDS011;11357;49.990;7.370;2023-05-19T12:20:17;5.95;;;1.88;;
22378;SDS011;11357;49.990;7.370;2023-05-19T12:22:44;8.20;;;1.98;;
22378;SDS011;11357;49.990;7.370;2023-05-19T12:25:11;5.75;;;1.88;;
22378;SDS011;11357;49.990;7.370;2023-05-19T12:27:38;6.75;;;2.25;;
22378;SDS011;11357;49.990;7.370;2023-05-19T12:30:15;6.47;;;2.22;;
22378;SDS011;11357;49.990;7.370;2023-05-19T12:32:42;6.72;;;2.45;;
22378;SDS011;11357;49.990;7.370;2023-05-19T12:35:08;6.45;;;1.65;;
22378;SDS011;11357;49.990;7.370;2023-05-19T12:37:36;5.50;;;1.98;;
22378;SDS011;11357;49.990;7.370;2023-05-19T12:40:05;6.78;;;1.88;;
22378;SDS011;11357;49.990;7.370;2023-05-19T12:42:32;5.15;;;1.83;;
22378;SDS011;11357;49.990;7.370;2023-05-19T12:45:04;6.35;;;1.55;;
22378;SDS011;11357;49.990;7.370;2023-05-19T12:47:31;5.07;;;2.15;;
22378;SDS011;11357;49.990;7.370;2023-05-19T12:52:24;9.10;;;2.15;;
22378;SDS011;11357;49.990;7.370;2023-05-19T12:54:58;5.15;;;1.80;;
22378;SDS011;11357;49.990;7.370;2023-05-19T12:57:29;8.65;;;1.90;;
22378;SDS011;11357;49.990;7.370;2023-05-19T13:00:04;6.03;;;2.65;;
22378;SDS011;11357;49.990;7.370;2023-05-19T13:02:53;6.65;;;2.17;;
22378;SDS011;11357;49.990;7.370;2023-05-19T13:05:20;5.55;;;1.55;;
22378;SDS011;11357;49.990;7.370;2023-05-19T13:07:53;3.88;;;1.30;;
22378;SDS011;11357;49.990;7.370;2023-05-19T13:10:19;6.85;;;2.67;;
22378;SDS011;11357;49.990;7.370;2023-05-19T13:12:45;4.28;;;1.70;;
22378;SDS011;11357;49.990;7.370;2023-05-19T13:15:11;6.28;;;1.85;;
22378;SDS011;11357;49.990;7.370;2023-05-19T13:17:36;6.10;;;1.83;;
22378;SDS011;11357;49.990;7.370;2023-05-19T13:20:02;8.70;;;2.05;;
22378;SDS011;11357;49.990;7.370;2023-05-19T13:22:28;13.95;;;2.00;;
22378;SDS011;11357;49.990;7.370;2023-05-19T13:24:54;4.80;;;1.92;;
22378;SDS011;11357;49.990;7.370;2023-05-19T13:27:23;4.97;;;1.90;;
22378;SDS011;11357;49.990;7.370;2023-05-19T13:29:49;7.10;;;2.03;;
22378;SDS011;11357;49.990;7.370;2023-05-19T13:32:15;3.13;;;1.50;;
22378;SDS011;11357;49.990;7.370;2023-05-19T13:34:40;4.47;;;1.48;;
22378;SDS011;11357;49.990;7.370;2023-05-19T13:37:12;5.38;;;1.80;;
22378;SDS011;11357;49.990;7.370;2023-05-19T13:39:38;5.25;;;1.45;;
22378;SDS011;11357;49.990;7.370;2023-05-19T13:42:05;6.07;;;2.00;;
22378;SDS011;11357;49.990;7.370;2023-05-19T13:44:31;5.45;;;1.77;;
22378;SDS011;11357;49.990;7.370;2023-05-19T13:46:57;4.13;;;2.00;;
22378;SDS011;11357;49.990;7.370;2023-05-19T13:49:22;3.35;;;1.75;;
22378;SDS011;11357;49.990;7.370;2023-05-19T13:51:48;5.88;;;2.10;;
22378;SDS011;11357;49.990;7.370;2023-05-19T13:54:14;5.45;;;1.83;;
22378;SDS011;11357;49.990;7.370;2023-05-19T13:56:40;5.45;;;2.10;;
22378;SDS011;11357;49.990;7.370;2023-05-19T13:59:07;7.05;;;1.83;;
22378;SDS011;11357;49.990;7.370;2023-05-19T14:01:32;3.47;;;2.00;;
22378;SDS011;11357;49.990;7.370;2023-05-19T14:03:58;3.53;;;1.55;;
22378;SDS011;11357;49.990;7.370;2023-05-19T14:06:24;2.78;;;1.67;;
22378;SDS011;11357;49.990;7.370;2023-05-19T14:08:50;3.03;;;1.60;;
22378;SDS011;11357;49.990;7.370;2023-05-19T14:11:18;6.30;;;2.13;;
22378;SDS011;11357;49.990;7.370;2023-05-19T14:13:48;10.40;;;2.35;;
22378;SDS011;11357;49.990;7.370;2023-05-19T14:16:15;7.47;;;1.60;;
22378;SDS011;11357;49.990;7.370;2023-05-19T14:18:44;5.82;;;2.00;;
22378;SDS011;11357;49.990;7.370;2023-05-19T14:23:45;4.75;;;1.70;;
22378;SDS011;11357;49.990;7.370;2023-05-19T14:26:11;4.50;;;1.48;;
22378;SDS011;11357;49.990;7.370;2023-05-19T14:28:36;6.18;;;2.00;;
22378;SDS011;11357;49.990;7.370;2023-05-19T14:31:02;5.07;;;1.65;;
22378;SDS011;11357;49.990;7.370;2023-05-19T14:33:28;6.20;;;1.80;;
22378;SDS011;11357;49.990;7.370;2023-05-19T14:35:55;3.60;;;1.58;;
22378;SDS011;11357;49.990;7.370;2023-05-19T14:38:23;6.50;;;1.73;;
22378;SDS011;11357;49.990;7.370;2023-05-19T14:40:50;4.70;;;2.10;;
22378;SDS011;11357;49.990;7.370;2023-05-19T14:43:15;4.75;;;1.67;;
22378;SDS011;11357;49.990;7.370;2023-05-19T14:45:41;3.78;;;1.90;;
22378;SDS011;11357;49.990;7.370;2023-05-19T14:48:09;3.92;;;1.90;;
22378;SDS011;11357;49.990;7.370;2023-05-19T14:50:36;4.00;;;1.60;;
22378;SDS011;11357;49.990;7.370;2023-05-19T14:53:02;4.50;;;1.98;;
22378;SDS011;11357;49.990;7.370;2023-05-19T14:55:27;4.60;;;1.83;;
22378;SDS011;11357;49.990;7.370;2023-05-19T14:57:53;5.72;;;1.90;;
22378;SDS011;11357;49.990;7.370;2023-05-19T15:00:19;4.95;;;1.60;;
22378;SDS011;11357;49.990;7.370;2023-05-19T15:02:45;4.95;;;1.95;;
22378;SDS011;11357;49.990;7.370;2023-05-19T15:07:40;5.50;;;1.73;;
22378;SDS011;11357;49.990;7.370;2023-05-19T15:10:06;5.72;;;1.70;;
22378;SDS011;11357;49.990;7.370;2023-05-19T15:12:32;6.07;;;1.83;;
22378;SDS011;11357;49.990;7.370;2023-05-19T15:14:58;2.65;;;1.58;;
22378;SDS011;11357;49.990;7.370;2023-05-19T15:17:24;3.97;;;1.58;;
22378;SDS011;11357;49.990;7.370;2023-05-19T15:19:50;6.47;;;2.03;;
22378;SDS011;11357;49.990;7.370;2023-05-19T15:22:16;2.28;;;1.40;;
22378;SDS011;11357;49.990;7.370;2023-05-19T15:24:41;4.70;;;1.80;;
22378;SDS011;11357;49.990;7.370;2023-05-19T15:27:07;3.72;;;1.90;;
22378;SDS011;11357;49.990;7.370;2023-05-19T15:29:33;4.28;;;1.77;;
22378;SDS011;11357;49.990;7.370;2023-05-19T15:31:59;4.00;;;1.70;;
22378;SDS011;11357;49.990;7.370;2023-05-19T15:34:26;4.18;;;1.70;;
22378;SDS011;11357;49.990;7.370;2023-05-19T15:36:51;3.92;;;1.70;;
22378;SDS011;11357;49.990;7.370;2023-05-19T15:39:17;4.40;;;1.60;;
22378;SDS011;11357;49.990;7.370;2023-05-19T15:41:43;6.53;;;1.98;;
22378;SDS011;11357;49.990;7.370;2023-05-19T15:44:09;3.50;;;1.90;;
22378;SDS011;11357;49.990;7.370;2023-05-19T15:46:34;4.97;;;1.88;;
22378;SDS011;11357;49.990;7.370;2023-05-19T15:49:00;2.83;;;1.67;;
22378;SDS011;11357;49.990;7.370;2023-05-19T15:51:26;4.03;;;1.48;;
22378;SDS011;11357;49.990;7.370;2023-05-19T15:53:52;6.30;;;2.00;;